createdAt,value
2023-04-18T00:04:18.093Z,7.65
2023-04-18T00:09:21.221Z,10.00
2023-04-18T00:14:24.677Z,8.60
2023-04-18T00:19:28.660Z,9.20
2023-04-18T00:24:31.484Z,12.15
2023-04-18T00:29:34.015Z,9.93
2023-04-18T00:34:37.956Z,12.13
2023-04-18T00:39:40.501Z,11.25
2023-04-18T00:44:43.130Z,11.02
2023-04-18T00:49:47.275Z,10.52
2023-04-18T00:54:50.216Z,13.95
2023-04-18T00:59:52.891Z,12.30
2023-04-18T01:04:58.480Z,15.30
2023-04-18T01:10:01.538Z,15.07
2023-04-18T01:15:04.685Z,16.70
2023-04-18T01:20:10.075Z,15.45
2023-04-18T01:25:14.397Z,15.15
2023-04-18T01:30:17.878Z,16.20
2023-04-18T01:35:20.689Z,16.00
2023-04-18T01:40:24.928Z,16.40
2023-04-18T01:45:29.133Z,15.85
2023-04-18T01:50:32.070Z,15.98
2023-04-18T01:55:35.975Z,16.02
2023-04-18T02:00:38.619Z,16.17
2023-04-18T02:05:41.649Z,13.07
2023-04-18T02:10:47.370Z,20.65
2023-04-18T02:15:50.894Z,15.10
2023-04-18T02:20:53.513Z,15.75
2023-04-18T02:25:59.126Z,14.88
2023-04-18T02:31:01.805Z,15.88
2023-04-18T02:36:04.715Z,14.77
2023-04-18T02:41:08.833Z,15.02
2023-04-18T02:46:11.800Z,15.05
2023-04-18T02:51:14.598Z,13.70
2023-04-18T02:56:19.571Z,13.90
2023-04-18T03:01:51.050Z,14.52
2023-04-18T03:06:56.283Z,15.15
2023-04-18T03:12:02.237Z,14.32
2023-04-18T03:17:06.552Z,16.58
2023-04-18T03:22:15.316Z,14.07
2023-04-18T03:27:27.214Z,13.85
2023-04-18T03:32:30.394Z,15.00
2023-04-18T03:37:33.046Z,15.57
2023-04-18T03:42:38.590Z,14.75
2023-04-18T03:47:41.429Z,12.98
2023-04-18T03:52:44.313Z,13.30
2023-04-18T03:57:49.336Z,12.05
2023-04-18T04:03:00.589Z,13.63
2023-04-18T04:08:03.480Z,11.75
2023-04-18T04:13:07.475Z,12.40
2023-04-18T04:18:13.716Z,10.98
2023-04-18T04:23:19.140Z,10.82
2023-04-18T04:28:25.918Z,11.00
2023-04-18T04:33:34.341Z,12.23
2023-04-18T04:38:40.720Z,10.85
2023-04-18T04:43:46.946Z,13.07
2023-04-18T04:48:54.475Z,10.20
2023-04-18T04:53:57.142Z,10.48
2023-04-18T04:59:01.871Z,12.52
2023-04-18T05:04:15.661Z,12.10
2023-04-18T05:09:18.382Z,10.35
2023-04-18T05:14:22.365Z,13.05
2023-04-18T05:19:25.026Z,8.32
2023-04-18T05:24:27.589Z,9.00
2023-04-18T05:29:31.457Z,9.65
2023-04-18T05:34:38.041Z,11.45
2023-04-18T05:39:41.375Z,9.65
2023-04-18T05:44:45.397Z,7.20
2023-04-18T05:49:48.237Z,9.10
2023-04-18T05:54:51.216Z,11.02
2023-04-18T05:59:55.151Z,8.75
2023-04-18T06:04:57.915Z,9.63
2023-04-18T06:10:00.571Z,9.82
2023-04-18T06:15:05.530Z,8.60
2023-04-18T06:20:08.971Z,9.57
2023-04-18T06:25:11.602Z,12.77
2023-04-18T06:30:16.012Z,13.55
2023-04-18T06:35:18.724Z,12.23
2023-04-18T06:40:21.408Z,8.90
2023-04-18T06:45:25.500Z,9.25
2023-04-18T06:50:28.262Z,10.93
2023-04-18T06:55:31.012Z,10.00
2023-04-18T07:00:34.927Z,11.93
2023-04-18T07:05:37.858Z,10.45
2023-04-18T07:10:41.062Z,11.10
2023-04-18T07:15:45.018Z,11.05
2023-04-18T07:20:47.729Z,11.23
2023-04-18T07:25:50.704Z,10.90
2023-04-18T07:30:55.323Z,11.30
2023-04-18T07:35:58.087Z,10.23
2023-04-18T07:41:01.218Z,10.43
2023-04-18T07:46:06.695Z,9.93
2023-04-18T07:51:09.671Z,13.10
2023-04-18T07:56:14.527Z,12.68
2023-04-18T08:01:20.861Z,11.50
2023-04-18T08:06:23.523Z,9.82
2023-04-18T08:11:26.191Z,8.95
2023-04-18T08:16:30.200Z,9.63
2023-04-18T08:21:33.198Z,11.48
2023-04-18T08:26:35.820Z,10.05
2023-04-18T08:31:40.089Z,8.70
2023-04-18T08:36:42.838Z,11.20
2023-04-18T08:41:49.148Z,10.50
2023-04-18T08:46:54.508Z,9.65
2023-04-18T08:51:58.074Z,10.18
2023-04-18T08:57:07.382Z,8.73
2023-04-18T09:02:11.872Z,12.18
2023-04-18T09:07:15.055Z,10.02
2023-04-18T09:12:18.366Z,9.18
2023-04-18T09:17:33.839Z,8.77
2023-04-18T09:22:47.176Z,9.10
2023-04-18T09:27:49.731Z,9.05
2023-04-18T09:33:00.206Z,9.52
2023-04-18T09:38:03.186Z,10.00
2023-04-18T09:43:18.596Z,10.52
2023-04-18T09:48:22.730Z,9.77
2023-04-18T09:53:25.584Z,9.73
2023-04-18T09:58:30.391Z,9.55
2023-04-18T10:03:36.276Z,13.68
2023-04-18T10:08:39.377Z,9.80
2023-04-18T10:13:44.079Z,12.45
2023-04-18T10:18:50.069Z,11.10
2023-04-18T10:23:52.698Z,11.18
2023-04-18T10:28:56.826Z,12.02
2023-04-18T10:34:05.778Z,9.77
2023-04-18T10:39:21.705Z,13.10
2023-04-18T10:44:24.422Z,11.95
2023-04-18T10:49:32.098Z,11.25
2023-04-18T10:54:39.055Z,10.93
2023-04-18T10:59:43.069Z,11.60
2023-04-18T11:04:50.933Z,11.30
2023-04-18T11:09:54.395Z,12.48
2023-04-18T11:14:56.998Z,14.05
2023-04-18T11:20:08.843Z,15.30
2023-04-18T11:25:11.586Z,13.60
2023-04-18T11:30:15.233Z,11.63
2023-04-18T11:35:19.432Z,11.38
2023-04-18T11:40:22.001Z,15.25
2023-04-18T11:45:24.601Z,14.00
2023-04-18T11:50:28.766Z,18.25
2023-04-18T11:55:31.379Z,12.95
2023-04-18T12:00:35.282Z,11.68
2023-04-18T12:05:39.488Z,11.73
2023-04-18T12:10:47.626Z,13.05
2023-04-18T12:15:50.546Z,13.38
2023-04-18T12:20:55.000Z,11.18
2023-04-18T12:26:01.326Z,11.45
2023-04-18T12:31:05.824Z,10.63
2023-04-18T12:36:11.162Z,13.20
2023-04-18T12:41:14.299Z,12.43
2023-04-18T12:46:17.066Z,9.77
2023-04-18T12:51:22.800Z,9.68
2023-04-18T12:56:25.352Z,11.63
2023-04-18T13:01:28.272Z,11.75
2023-04-18T13:06:32.209Z,13.60
2023-04-18T13:11:35.073Z,11.25
2023-04-18T13:16:38.008Z,10.02
2023-04-18T13:21:42.631Z,12.77
2023-04-18T13:26:45.469Z,9.30
2023-04-18T13:31:48.226Z,9.20
2023-04-18T13:36:52.255Z,11.35
2023-04-18T13:41:55.473Z,9.88
2023-04-18T13:46:58.487Z,12.75
2023-04-18T13:52:02.448Z,12.05
2023-04-18T13:57:11.479Z,13.55
2023-04-18T14:02:14.621Z,11.48
2023-04-18T14:07:18.922Z,9.57
2023-04-18T14:12:21.608Z,10.98
2023-04-18T14:17:24.353Z,10.68
2023-04-18T14:22:28.449Z,10.93
2023-04-18T14:27:31.062Z,13.45
2023-04-18T14:32:33.648Z,12.75
2023-04-18T14:37:37.712Z,11.18
2023-04-18T14:42:40.670Z,15.35
2023-04-18T14:47:44.049Z,13.13
2023-04-18T14:52:48.153Z,9.93
2023-04-18T14:57:50.776Z,10.90
2023-04-18T15:02:53.783Z,9.35
2023-04-18T15:07:58.082Z,10.65
2023-04-18T15:13:00.650Z,10.02
2023-04-18T15:18:03.428Z,10.45
2023-04-18T15:23:09.722Z,11.05
2023-04-18T15:28:13.317Z,9.10
2023-04-18T15:33:17.864Z,13.85
2023-04-18T15:38:22.167Z,10.82
2023-04-18T15:43:24.746Z,9.95
2023-04-18T15:48:28.534Z,11.18
2023-04-18T15:53:32.583Z,12.48
2023-04-18T15:58:35.290Z,10.00
2023-04-18T16:03:38.198Z,10.85
2023-04-18T16:08:42.457Z,12.32
2023-04-18T16:13:45.140Z,10.90
2023-04-18T16:18:47.687Z,11.50
2023-04-18T16:23:51.659Z,12.70
2023-04-18T16:28:54.339Z,11.73
2023-04-18T16:33:57.053Z,12.10
2023-04-18T16:39:01.149Z,10.60
2023-04-18T16:44:03.773Z,11.90
2023-04-18T16:49:06.366Z,12.05
2023-04-18T16:54:10.510Z,12.77
2023-04-18T16:59:13.100Z,11.70
2023-04-18T17:04:16.052Z,12.00
2023-04-18T17:09:20.456Z,13.52
2023-04-18T17:14:23.046Z,13.80
2023-04-18T17:19:26.258Z,13.73
2023-04-18T17:24:30.416Z,12.88
2023-04-18T17:29:33.241Z,12.82
2023-04-18T17:34:36.043Z,16.27
2023-04-18T17:39:40.749Z,15.52
2023-04-18T17:44:43.455Z,12.90
2023-04-18T17:49:46.296Z,10.55
2023-04-18T17:54:50.334Z,16.70
2023-04-18T17:59:53.457Z,12.75
2023-04-18T18:04:56.299Z,11.68
2023-04-18T18:10:00.807Z,11.10
2023-04-18T18:15:03.668Z,9.45
2023-04-18T18:20:08.693Z,11.30
2023-04-18T18:25:13.045Z,12.05
2023-04-18T18:30:16.208Z,10.65
2023-04-18T18:35:19.260Z,10.13
2023-04-18T18:40:23.380Z,9.95
2023-04-18T18:45:26.032Z,11.85
2023-04-18T18:50:28.776Z,10.07
2023-04-18T18:55:33.044Z,13.60
2023-04-18T19:00:35.644Z,9.05
2023-04-18T19:05:38.511Z,11.15
2023-04-18T19:10:43.353Z,12.95
2023-04-18T19:15:46.061Z,11.38
2023-04-18T19:20:49.526Z,8.93
2023-04-18T19:25:53.731Z,12.05
2023-04-18T19:30:56.404Z,13.68
2023-04-18T19:35:59.669Z,13.90
2023-04-18T19:41:03.565Z,12.27
2023-04-18T19:46:06.393Z,12.57
2023-04-18T19:51:09.029Z,12.70
2023-04-18T19:56:14.836Z,13.73
2023-04-18T20:01:19.205Z,18.10
2023-04-18T20:06:22.026Z,11.48
2023-04-18T20:11:25.959Z,13.85
2023-04-18T20:16:29.106Z,12.50
2023-04-18T20:21:32.086Z,10.82
2023-04-18T20:26:36.164Z,12.60
2023-04-18T20:31:42.150Z,13.20
2023-04-18T20:36:46.513Z,11.77
2023-04-18T20:41:51.745Z,13.02
2023-04-18T20:46:54.634Z,13.60
2023-04-18T20:51:57.220Z,13.77
2023-04-18T20:57:01.344Z,12.63
2023-04-18T21:02:04.167Z,12.93
2023-04-18T21:07:06.879Z,11.38
2023-04-18T21:12:10.790Z,16.02
2023-04-18T21:17:17.172Z,11.07
2023-04-18T21:22:19.929Z,11.02
2023-04-18T21:27:23.842Z,10.82
2023-04-18T21:32:26.546Z,9.20
2023-04-18T21:37:29.241Z,9.93
2023-04-18T21:42:35.380Z,8.43
2023-04-18T21:47:38.157Z,6.03
2023-04-18T21:52:40.838Z,7.80
2023-04-18T21:57:44.806Z,5.32
2023-04-18T22:02:47.646Z,8.23
2023-04-18T22:07:58.224Z,5.00
2023-04-18T22:13:04.337Z,5.47
2023-04-18T22:18:08.381Z,4.18
2023-04-18T22:23:11.625Z,5.70
2023-04-18T22:28:15.596Z,7.18
2023-04-18T22:33:18.212Z,5.15
2023-04-18T22:38:20.829Z,4.07
2023-04-18T22:43:24.929Z,5.07
2023-04-18T22:48:27.471Z,5.40
2023-04-18T22:53:30.164Z,5.03
2023-04-18T22:58:34.150Z,3.97
2023-04-18T23:03:36.880Z,5.70
2023-04-18T23:08:39.491Z,5.43
2023-04-18T23:13:43.439Z,5.57
2023-04-18T23:18:46.021Z,4.28
2023-04-18T23:23:48.982Z,8.40
2023-04-18T23:28:52.910Z,3.78
2023-04-18T23:33:56.277Z,3.88
2023-04-18T23:38:58.894Z,6.28
2023-04-18T23:44:02.851Z,5.90
2023-04-18T23:49:05.930Z,4.20
2023-04-18T23:54:08.573Z,6.85
2023-04-18T23:59:12.503Z,4.10
